Time;durP1;ratioP1;P1;durP2;ratioP2;P2;SDS_P1;SDS_P2;PMS_P1;PMS_P2;Temp;Humidity;BMP_temperature;BMP_pressure;BME280_temperature;BME280_humidity;BME280_pressure;Samples;Min_cycle;Max_cycle;Signal;HPM_P1;HPM_P2
2023/04/23 00:01:08;;;;;;;9.40;7.50;;;;;;;;;;5051281;28;20405;-69
2023/04/23 00:03:37;;;;;;;10.75;7.82;;;;;;;;;;5051197;28;20517;-69
2023/04/23 00:06:09;;;;;;;10.38;7.55;;;;;;;;;;5050940;28;20376;-70
2023/04/23 00:08:38;;;;;;;9.23;7.63;;;;;;;;;;5050273;28;20071;-69
2023/04/23 00:11:05;;;;;;;9.10;7.15;;;;;;;;;;5050507;28;20488;-70
2023/04/23 00:13:32;;;;;;;10.85;8.30;;;;;;;;;;5050661;28;20060;-69
2023/04/23 00:15:59;;;;;;;9.40;7.45;;;;;;;;;;5050080;28;20052;-70
2023/04/23 00:18:26;;;;;;;10.32;7.80;;;;;;;;;;5050644;28;20406;-70
2023/04/23 00:20:53;;;;;;;10.32;7.38;;;;;;;;;;5050449;28;20064;-69
2023/04/23 00:23:21;;;;;;;11.60;8.00;;;;;;;;;;5050601;28;20053;-69
2023/04/23 00:25:48;;;;;;;9.30;7.50;;;;;;;;;;5050186;28;20049;-69
2023/04/23 00:28:15;;;;;;;8.30;7.13;;;;;;;;;;5050454;28;20045;-69
2023/04/23 00:30:41;;;;;;;9.40;7.18;;;;;;;;;;5050637;28;20059;-69
2023/04/23 00:33:08;;;;;;;8.52;6.65;;;;;;;;;;5050215;28;20400;-69
2023/04/23 00:35:34;;;;;;;9.48;6.38;;;;;;;;;;5049238;28;20045;-69
2023/04/23 00:38:01;;;;;;;10.65;6.38;;;;;;;;;;5049538;28;20343;-69
2023/04/23 00:40:29;;;;;;;7.15;5.97;;;;;;;;;;5050482;28;20048;-69
2023/04/23 00:42:57;;;;;;;8.27;6.20;;;;;;;;;;5049736;28;20048;-69
2023/04/23 00:45:23;;;;;;;6.47;5.50;;;;;;;;;;5050387;28;20045;-70
2023/04/23 00:47:50;;;;;;;6.65;5.95;;;;;;;;;;5049759;28;20047;-70
2023/04/23 00:50:19;;;;;;;7.10;5.63;;;;;;;;;;5050071;28;20155;-69
2023/04/23 00:52:46;;;;;;;5.70;4.90;;;;;;;;;;5050231;28;20461;-69
2023/04/23 00:55:12;;;;;;;6.38;5.40;;;;;;;;;;5050289;28;20045;-69
2023/04/23 00:57:41;;;;;;;5.97;5.28;;;;;;;;;;5049916;28;20045;-70
2023/04/23 01:00:12;;;;;;;7.50;4.97;;;;;;;;;;5049761;28;20434;-70
2023/04/23 01:02:39;;;;;;;5.28;4.78;;;;;;;;;;5049915;28;20083;-69
2023/04/23 01:05:08;;;;;;;5.28;4.78;;;;;;;;;;5051910;28;20041;-70
2023/04/23 01:07:36;;;;;;;5.75;4.65;;;;;;;;;;5051128;28;20056;-69
2023/04/23 01:10:03;;;;;;;5.55;4.60;;;;;;;;;;5053976;28;20375;-69
2023/04/23 01:12:30;;;;;;;6.28;3.95;;;;;;;;;;5054068;28;20056;-70
2023/04/23 01:14:58;;;;;;;5.53;4.30;;;;;;;;;;5053763;28;20419;-70
2023/04/23 01:17:25;;;;;;;8.00;4.25;;;;;;;;;;5053699;28;20055;-70
2023/04/23 01:19:52;;;;;;;7.30;3.92;;;;;;;;;;5053527;28;20091;-69
2023/04/23 01:22:20;;;;;;;7.07;5.03;;;;;;;;;;5054027;28;20102;-70
2023/04/23 01:24:47;;;;;;;7.70;5.05;;;;;;;;;;5053619;28;20083;-69
2023/04/23 01:27:14;;;;;;;8.20;5.05;;;;;;;;;;5053206;28;20123;-69
2023/04/23 01:29:41;;;;;;;6.40;4.78;;;;;;;;;;5053807;28;20449;-70
2023/04/23 01:32:08;;;;;;;5.20;4.45;;;;;;;;;;5053534;28;20380;-69
2023/04/23 01:34:35;;;;;;;5.65;4.47;;;;;;;;;;5053819;28;20041;-69
2023/04/23 01:37:03;;;;;;;6.28;4.65;;;;;;;;;;5068410;28;20466;-69
2023/04/23 01:39:31;;;;;;;6.95;4.50;;;;;;;;;;5073677;28;20483;-69
2023/04/23 01:41:59;;;;;;;6.93;4.85;;;;;;;;;;5073159;28;20052;-70
2023/04/23 01:44:25;;;;;;;5.10;4.18;;;;;;;;;;5073383;28;20052;-69
2023/04/23 01:46:52;;;;;;;5.28;4.60;;;;;;;;;;5072988;28;20065;-69
2023/04/23 01:49:19;;;;;;;5.18;4.38;;;;;;;;;;5073453;28;20524;-69
2023/04/23 01:51:45;;;;;;;7.22;4.55;;;;;;;;;;5073554;28;20048;-70
2023/04/23 01:54:12;;;;;;;5.63;4.35;;;;;;;;;;5073084;28;20447;-70
2023/04/23 01:56:40;;;;;;;5.93;4.32;;;;;;;;;;5062730;28;20063;-70
2023/04/23 01:59:07;;;;;;;4.80;4.28;;;;;;;;;;5053717;28;20095;-69
2023/04/23 02:01:44;;;;;;;6.07;4.55;;;;;;;;;;5053303;28;20045;-69
2023/04/23 02:04:12;;;;;;;5.95;5.13;;;;;;;;;;5052928;28;20473;-69
2023/04/23 02:06:38;;;;;;;7.63;5.28;;;;;;;;;;5053229;28;20041;-69
2023/04/23 02:09:05;;;;;;;7.50;5.32;;;;;;;;;;5052429;28;20049;-69
2023/04/23 02:11:32;;;;;;;7.25;5.70;;;;;;;;;;5053436;28;20052;-70
2023/04/23 02:14:00;;;;;;;7.07;5.50;;;;;;;;;;5053206;28;20041;-69
2023/04/23 02:16:27;;;;;;;7.57;5.80;;;;;;;;;;5053241;28;20052;-70
2023/04/23 02:18:53;;;;;;;5.97;5.25;;;;;;;;;;5052522;28;20128;-69
2023/04/23 02:21:20;;;;;;;6.65;5.50;;;;;;;;;;5052850;28;20546;-69
2023/04/23 02:23:47;;;;;;;6.78;5.72;;;;;;;;;;5052986;28;20053;-69
2023/04/23 02:26:13;;;;;;;6.82;5.55;;;;;;;;;;5052108;28;20052;-69
2023/04/23 02:28:40;;;;;;;7.35;5.57;;;;;;;;;;5053021;28;20045;-69
2023/04/23 02:31:08;;;;;;;8.50;5.80;;;;;;;;;;5052571;28;20045;-69
2023/04/23 02:33:34;;;;;;;6.00;5.32;;;;;;;;;;5052867;28;20052;-69
2023/04/23 02:36:01;;;;;;;7.22;5.75;;;;;;;;;;5051514;28;20055;-69
2023/04/23 02:38:28;;;;;;;8.38;6.25;;;;;;;;;;5052729;28;20076;-69
2023/04/23 02:40:54;;;;;;;8.70;5.93;;;;;;;;;;5052104;28;20045;-69
2023/04/23 02:43:21;;;;;;;7.75;6.00;;;;;;;;;;5052496;28;20045;-69
2023/04/23 02:45:48;;;;;;;7.63;5.78;;;;;;;;;;5052408;28;20045;-69
2023/04/23 02:48:16;;;;;;;8.88;6.68;;;;;;;;;;5052378;28;20056;-69
2023/04/23 02:50:43;;;;;;;9.20;6.82;;;;;;;;;;5052775;28;20049;-69
2023/04/23 02:53:17;;;;;;;9.00;7.05;;;;;;;;;;5052275;28;20062;-69
2023/04/23 02:55:43;;;;;;;10.10;7.32;;;;;;;;;;5052156;28;20041;-69
2023/04/23 02:58:10;;;;;;;11.45;7.82;;;;;;;;;;5051565;28;20252;-69
2023/04/23 03:00:37;;;;;;;12.10;9.15;;;;;;;;;;5052052;28;20049;-69
2023/04/23 03:03:04;;;;;;;12.27;7.88;;;;;;;;;;5051566;28;20044;-69
2023/04/23 03:05:31;;;;;;;11.35;7.85;;;;;;;;;;5051301;28;20053;-69
2023/04/23 03:07:58;;;;;;;14.45;8.13;;;;;;;;;;5051586;28;20479;-70
2023/04/23 03:10:25;;;;;;;10.98;7.53;;;;;;;;;;5051902;28;20501;-69
2023/04/23 03:12:51;;;;;;;13.38;7.85;;;;;;;;;;5052298;28;20059;-69
2023/04/23 03:15:18;;;;;;;11.85;7.07;;;;;;;;;;5051438;28;20379;-69
2023/04/23 03:17:44;;;;;;;9.65;7.72;;;;;;;;;;5052330;28;20059;-69
2023/04/23 03:20:12;;;;;;;10.23;7.75;;;;;;;;;;5051637;28;20052;-69
2023/04/23 03:22:40;;;;;;;11.13;7.97;;;;;;;;;;5052184;28;20088;-69
2023/04/23 03:25:07;;;;;;;10.20;7.88;;;;;;;;;;5051249;28;20047;-69
2023/04/23 03:27:34;;;;;;;10.32;7.45;;;;;;;;;;5051525;28;20056;-69
2023/04/23 03:30:00;;;;;;;9.73;7.38;;;;;;;;;;5050492;28;20099;-69
2023/04/23 03:32:27;;;;;;;9.90;6.60;;;;;;;;;;5051628;28;20048;-69
2023/04/23 03:34:54;;;;;;;8.02;6.53;;;;;;;;;;5052140;28;20041;-69
2023/04/23 03:37:20;;;;;;;9.02;6.63;;;;;;;;;;5054349;28;20055;-69
2023/04/23 03:39:48;;;;;;;9.48;6.43;;;;;;;;;;5051513;28;20060;-69
2023/04/23 03:42:15;;;;;;;8.68;6.47;;;;;;;;;;5051023;28;20495;-69
2023/04/23 03:44:41;;;;;;;8.10;6.60;;;;;;;;;;5051075;28;20049;-69
2023/04/23 03:47:08;;;;;;;8.02;6.28;;;;;;;;;;5050625;28;20052;-69
2023/04/23 03:49:35;;;;;;;9.50;6.25;;;;;;;;;;5051102;28;20492;-69
2023/04/23 03:52:01;;;;;;;7.93;6.00;;;;;;;;;;5050466;28;20053;-69
2023/04/23 03:54:28;;;;;;;9.35;6.40;;;;;;;;;;5050959;28;20055;-69
2023/04/23 03:56:57;;;;;;;8.98;6.35;;;;;;;;;;5050316;28;20049;-69
2023/04/23 03:59:23;;;;;;;7.88;6.80;;;;;;;;;;5051062;28;20060;-70
2023/04/23 04:01:50;;;;;;;10.18;6.57;;;;;;;;;;5051265;28;20499;-69
2023/04/23 04:04:16;;;;;;;11.60;7.65;;;;;;;;;;5050357;28;20403;-69
2023/04/23 04:06:43;;;;;;;11.15;6.78;;;;;;;;;;5053525;28;20045;-69
2023/04/23 04:09:10;;;;;;;13.43;10.45;;;;;;;;;;5050306;28;20051;-69
2023/04/23 04:11:36;;;;;;;8.30;7.45;;;;;;;;;;5051089;28;20052;-69
2023/04/23 04:14:04;;;;;;;9.52;6.93;;;;;;;;;;5050411;28;20460;-69
2023/04/23 04:16:31;;;;;;;8.45;7.20;;;;;;;;;;5050639;28;20518;-69
2023/04/23 04:18:57;;;;;;;11.65;7.10;;;;;;;;;;5050399;28;20495;-70
2023/04/23 04:21:24;;;;;;;9.82;6.50;;;;;;;;;;5050741;28;20483;-69
2023/04/23 04:23:52;;;;;;;9.60;7.68;;;;;;;;;;5050819;28;20056;-69
2023/04/23 04:26:19;;;;;;;8.35;7.00;;;;;;;;;;5048929;28;20095;-69
2023/04/23 04:28:45;;;;;;;9.75;7.07;;;;;;;;;;5050568;28;20053;-69
2023/04/23 04:31:15;;;;;;;7.82;6.88;;;;;;;;;;5050679;28;20041;-70
2023/04/23 04:33:42;;;;;;;12.73;9.60;;;;;;;;;;5050832;28;20041;-70
2023/04/23 04:36:08;;;;;;;11.00;8.25;;;;;;;;;;5050268;28;20064;-69
2023/04/23 04:38:36;;;;;;;10.32;7.93;;;;;;;;;;5050435;28;20045;-69
2023/04/23 04:41:03;;;;;;;9.60;7.07;;;;;;;;;;5049851;28;20052;-69
2023/04/23 04:43:31;;;;;;;9.05;7.18;;;;;;;;;;5050087;28;20045;-68
2023/04/23 04:45:58;;;;;;;9.65;7.47;;;;;;;;;;5049820;28;20048;-69
2023/04/23 04:48:26;;;;;;;10.50;7.72;;;;;;;;;;5071699;22;20066;-72
2023/04/23 04:50:53;;;;;;;9.25;7.45;;;;;;;;;;5069022;28;20048;-71
2023/04/23 04:53:19;;;;;;;12.95;7.85;;;;;;;;;;5069757;28;20053;-72
2023/04/23 04:55:46;;;;;;;8.38;7.05;;;;;;;;;;5069656;28;20051;-72
2023/04/23 04:58:12;;;;;;;8.27;6.97;;;;;;;;;;5068931;28;20051;-72
2023/04/23 05:00:39;;;;;;;9.10;7.15;;;;;;;;;;5069747;28;20055;-71
2023/04/23 05:03:06;;;;;;;7.75;6.93;;;;;;;;;;5069410;28;20500;-71
2023/04/23 05:05:34;;;;;;;8.80;7.22;;;;;;;;;;5072673;28;20131;-72
2023/04/23 05:08:01;;;;;;;10.07;7.28;;;;;;;;;;5069344;28;20045;-72
2023/04/23 05:10:27;;;;;;;11.52;6.78;;;;;;;;;;5069606;28;20563;-72
2023/04/23 05:12:54;;;;;;;10.27;7.63;;;;;;;;;;5068945;28;20143;-73
2023/04/23 05:15:21;;;;;;;8.43;6.80;;;;;;;;;;5069999;28;20494;-72
2023/04/23 05:17:49;;;;;;;7.43;6.65;;;;;;;;;;5068915;28;20051;-72
2023/04/23 05:20:16;;;;;;;7.25;6.13;;;;;;;;;;5069794;28;20048;-72
2023/04/23 05:22:43;;;;;;;7.97;6.28;;;;;;;;;;5069650;28;20053;-73
2023/04/23 05:25:11;;;;;;;8.43;6.53;;;;;;;;;;5068927;28;20055;-73
2023/04/23 05:27:38;;;;;;;7.68;5.80;;;;;;;;;;5069281;28;20048;-71
2023/04/23 05:30:08;;;;;;;6.65;5.68;;;;;;;;;;5069484;28;20433;-72
2023/04/23 05:32:35;;;;;;;7.00;5.55;;;;;;;;;;5070007;28;20449;-72
2023/04/23 05:35:02;;;;;;;7.25;5.35;;;;;;;;;;5066193;28;20082;-71
2023/04/23 05:37:29;;;;;;;8.02;5.45;;;;;;;;;;5067350;28;20482;-72
2023/04/23 05:39:58;;;;;;;7.50;5.53;;;;;;;;;;5068224;28;20044;-72
2023/04/23 05:42:25;;;;;;;9.32;6.22;;;;;;;;;;5069337;28;20106;-72
2023/04/23 05:44:51;;;;;;;10.18;6.18;;;;;;;;;;5068924;28;20050;-72
2023/04/23 05:47:18;;;;;;;7.43;6.05;;;;;;;;;;5068970;28;20045;-72
2023/04/23 05:49:44;;;;;;;6.88;5.75;;;;;;;;;;5069212;28;20040;-72
2023/04/23 05:52:11;;;;;;;7.43;5.95;;;;;;;;;;5068939;28;20044;-73
2023/04/23 05:54:38;;;;;;;8.90;6.93;;;;;;;;;;5071479;28;20406;-73
2023/04/23 05:57:06;;;;;;;10.27;7.03;;;;;;;;;;5071994;28;20049;-73
2023/04/23 05:59:34;;;;;;;8.18;6.25;;;;;;;;;;5073081;28;20044;-72
2023/04/23 06:02:00;;;;;;;7.82;6.95;;;;;;;;;;5072303;28;20055;-72
2023/04/23 06:04:27;;;;;;;8.15;6.20;;;;;;;;;;5072662;28;20506;-72
2023/04/23 06:06:53;;;;;;;9.93;6.47;;;;;;;;;;5054366;28;20044;-72
2023/04/23 06:09:20;;;;;;;7.78;6.10;;;;;;;;;;5052557;28;20049;-73
2023/04/23 06:11:49;;;;;;;14.18;7.30;;;;;;;;;;5052307;28;20048;-72
2023/04/23 06:14:17;;;;;;;7.00;5.68;;;;;;;;;;5060484;28;20147;-73
2023/04/23 06:16:43;;;;;;;7.35;5.30;;;;;;;;;;5071754;28;20041;-73
2023/04/23 06:19:10;;;;;;;7.15;5.30;;;;;;;;;;5071750;28;20040;-72
2023/04/23 06:21:37;;;;;;;7.43;5.30;;;;;;;;;;5072053;28;20047;-72
2023/04/23 06:24:04;;;;;;;6.93;5.40;;;;;;;;;;5072165;28;20045;-72
2023/04/23 06:26:30;;;;;;;7.63;4.95;;;;;;;;;;5072172;28;20071;-72
2023/04/23 06:28:57;;;;;;;6.40;4.93;;;;;;;;;;5071886;28;20044;-71
2023/04/23 06:31:25;;;;;;;5.82;4.80;;;;;;;;;;5072229;28;20047;-71
2023/04/23 06:33:51;;;;;;;5.65;4.50;;;;;;;;;;5071763;28;20052;-72
2023/04/23 06:36:18;;;;;;;5.72;4.00;;;;;;;;;;5067616;28;20041;-72
2023/04/23 06:38:44;;;;;;;5.85;3.72;;;;;;;;;;5051612;28;20047;-73
2023/04/23 06:41:12;;;;;;;6.90;4.95;;;;;;;;;;5052212;28;20486;-72
2023/04/23 06:43:38;;;;;;;5.35;4.50;;;;;;;;;;5051868;28;20048;-72
2023/04/23 06:46:05;;;;;;;7.13;4.50;;;;;;;;;;5051750;28;20045;-73
2023/04/23 06:48:33;;;;;;;5.75;3.97;;;;;;;;;;5051504;28;20410;-72
2023/04/23 06:51:00;;;;;;;6.38;3.55;;;;;;;;;;5051530;28;20049;-72
2023/04/23 06:53:26;;;;;;;4.40;3.70;;;;;;;;;;5051682;28;20049;-72
2023/04/23 06:55:53;;;;;;;5.90;3.45;;;;;;;;;;5051303;28;20405;-73
2023/04/23 06:58:19;;;;;;;5.57;3.45;;;;;;;;;;5051362;28;20059;-73
2023/04/23 07:00:46;;;;;;;5.07;3.50;;;;;;;;;;5051411;28;20095;-73
2023/04/23 07:03:13;;;;;;;4.05;3.50;;;;;;;;;;5051245;28;20309;-72
2023/04/23 07:05:40;;;;;;;5.45;3.33;;;;;;;;;;5064614;28;20044;-72
2023/04/23 07:08:07;;;;;;;4.38;3.00;;;;;;;;;;5091652;28;20425;-72
2023/04/23 07:10:34;;;;;;;5.93;3.30;;;;;;;;;;5091774;28;20406;-72
2023/04/23 07:13:00;;;;;;;7.25;3.55;;;;;;;;;;5091276;28;20058;-72
2023/04/23 07:15:27;;;;;;;4.30;2.80;;;;;;;;;;5091549;28;20048;-72
2023/04/23 07:17:53;;;;;;;3.35;2.72;;;;;;;;;;5090503;28;20048;-72
2023/04/23 07:20:20;;;;;;;4.32;3.10;;;;;;;;;;5091451;28;20135;-72
2023/04/23 07:22:48;;;;;;;3.55;2.85;;;;;;;;;;5091109;28;20127;-72
2023/04/23 07:25:16;;;;;;;4.35;2.97;;;;;;;;;;5091343;28;20047;-72
2023/04/23 07:27:42;;;;;;;5.07;2.85;;;;;;;;;;5090910;28;20523;-72
2023/04/23 07:30:09;;;;;;;5.88;2.55;;;;;;;;;;5091125;28;20501;-73
2023/04/23 07:32:36;;;;;;;4.00;2.83;;;;;;;;;;5091170;28;20052;-73
2023/04/23 07:35:03;;;;;;;4.70;2.75;;;;;;;;;;5091257;28;20047;-72
2023/04/23 07:37:30;;;;;;;3.20;2.28;;;;;;;;;;5091189;28;20098;-72
2023/04/23 07:39:59;;;;;;;4.43;2.10;;;;;;;;;;5090702;28;20040;-73
2023/04/23 07:42:26;;;;;;;3.25;2.15;;;;;;;;;;5091455;28;20323;-72
2023/04/23 07:44:52;;;;;;;5.57;2.45;;;;;;;;;;5090541;28;20048;-73
2023/04/23 07:47:19;;;;;;;5.40;2.40;;;;;;;;;;5090872;28;20044;-73
2023/04/23 07:49:46;;;;;;;2.80;2.03;;;;;;;;;;5090942;28;20043;-73
2023/04/23 07:52:12;;;;;;;4.15;2.58;;;;;;;;;;5090942;28;20044;-72
2023/04/23 07:54:39;;;;;;;5.80;2.42;;;;;;;;;;5090158;28;20052;-72
2023/04/23 07:57:07;;;;;;;2.65;2.10;;;;;;;;;;5090613;28;20044;-72
2023/04/23 07:59:34;;;;;;;5.45;2.60;;;;;;;;;;5090381;28;20055;-72
2023/04/23 08:02:00;;;;;;;3.08;2.55;;;;;;;;;;5091021;28;20058;-72
2023/04/23 08:04:27;;;;;;;3.22;2.08;;;;;;;;;;5091170;28;20044;-72
2023/04/23 08:06:53;;;;;;;3.95;2.90;;;;;;;;;;5090075;28;20040;-72
2023/04/23 08:09:20;;;;;;;2.30;2.10;;;;;;;;;;5090721;28;20044;-73
2023/04/23 08:11:47;;;;;;;5.85;2.38;;;;;;;;;;5090143;28;20075;-72
2023/04/23 08:14:15;;;;;;;4.35;2.53;;;;;;;;;;5090312;28;20140;-72
2023/04/23 08:16:41;;;;;;;5.32;3.13;;;;;;;;;;5089951;28;20432;-72
2023/04/23 08:19:08;;;;;;;5.80;3.05;;;;;;;;;;5090310;28;20040;-72
2023/04/23 08:21:34;;;;;;;3.60;2.10;;;;;;;;;;5090052;28;20044;-72
2023/04/23 08:24:02;;;;;;;4.25;2.22;;;;;;;;;;5090305;28;20069;-73
2023/04/23 08:26:28;;;;;;;4.28;2.28;;;;;;;;;;5089822;28;20044;-72
2023/04/23 08:28:55;;;;;;;2.97;2.28;;;;;;;;;;5090075;28;20054;-72
2023/04/23 08:31:23;;;;;;;3.95;2.53;;;;;;;;;;5090054;28;20097;-71
2023/04/23 08:33:50;;;;;;;4.40;2.30;;;;;;;;;;5090337;28;20044;-72
2023/04/23 08:36:16;;;;;;;3.45;2.28;;;;;;;;;;5090120;28;20040;-71
2023/04/23 08:38:43;;;;;;;4.40;2.58;;;;;;;;;;5090086;28;20044;-72
2023/04/23 08:41:12;;;;;;;3.30;2.47;;;;;;;;;;5089940;28;20444;-72
2023/04/23 08:43:44;;;;;;;4.28;2.90;;;;;;;;;;5089944;28;20078;-72
2023/04/23 08:46:14;;;;;;;4.65;2.28;;;;;;;;;;5090525;28;20052;-72
2023/04/23 08:48:44;;;;;;;4.20;2.30;;;;;;;;;;5090233;28;20409;-72
2023/04/23 08:51:15;;;;;;;6.43;2.33;;;;;;;;;;5091063;28;20048;-72
2023/04/23 08:53:44;;;;;;;4.15;2.30;;;;;;;;;;5090192;28;20101;-72
2023/04/23 08:56:13;;;;;;;3.55;2.10;;;;;;;;;;5090240;28;20048;-72
2023/04/23 08:58:41;;;;;;;2.45;2.15;;;;;;;;;;5090022;28;20044;-72
2023/04/23 09:01:09;;;;;;;2.30;1.73;;;;;;;;;;5090368;28;20058;-72
2023/04/23 09:03:36;;;;;;;4.10;2.33;;;;;;;;;;5090079;28;20044;-72
2023/04/23 09:06:04;;;;;;;4.18;2.10;;;;;;;;;;5089862;28;20658;-72
2023/04/23 09:08:32;;;;;;;3.85;2.03;;;;;;;;;;5089904;28;20402;-72
2023/04/23 09:11:01;;;;;;;5.03;2.40;;;;;;;;;;5090162;28;20079;-72
2023/04/23 09:13:29;;;;;;;3.78;2.35;;;;;;;;;;5089824;28;20051;-72
2023/04/23 09:15:56;;;;;;;4.43;2.28;;;;;;;;;;5089828;28;20044;-72
2023/04/23 09:18:22;;;;;;;4.65;2.40;;;;;;;;;;5089592;28;20054;-72
2023/04/23 09:20:50;;;;;;;2.78;1.60;;;;;;;;;;5089268;28;20097;-72
2023/04/23 09:23:21;;;;;;;5.93;1.92;;;;;;;;;;5086372;28;20455;-72
2023/04/23 09:25:48;;;;;;;2.80;1.80;;;;;;;;;;5069244;28;20433;-70
2023/04/23 09:28:14;;;;;;;3.78;1.90;;;;;;;;;;5069614;28;20483;-70
2023/04/23 09:30:44;;;;;;;3.78;1.95;;;;;;;;;;5073025;28;20087;-70
2023/04/23 09:33:11;;;;;;;3.30;1.90;;;;;;;;;;5073572;28;20140;-70
2023/04/23 09:35:38;;;;;;;3.13;1.75;;;;;;;;;;5072951;28;20052;-70
2023/04/23 09:38:09;;;;;;;2.90;1.83;;;;;;;;;;5073274;28;20135;-68
2023/04/23 09:40:37;;;;;;;3.10;1.73;;;;;;;;;;5073570;28;20140;-68
2023/04/23 09:43:06;;;;;;;5.15;2.10;;;;;;;;;;5072737;28;20052;-68
2023/04/23 09:45:34;;;;;;;2.75;1.60;;;;;;;;;;5073090;28;20094;-69
2023/04/23 09:48:00;;;;;;;5.13;2.03;;;;;;;;;;5072442;28;20112;-68
2023/04/23 09:50:33;;;;;;;4.57;1.88;;;;;;;;;;5073086;28;20066;-68
2023/04/23 09:53:00;;;;;;;2.78;1.80;;;;;;;;;;5073005;28;20040;-70
2023/04/23 09:55:34;;;;;;;3.08;2.30;;;;;;;;;;5073393;28;20048;-70
2023/04/23 09:58:02;;;;;;;1.85;1.60;;;;;;;;;;5072605;28;20141;-70
2023/04/23 10:00:33;;;;;;;4.20;1.80;;;;;;;;;;5072931;28;20426;-70
2023/04/23 10:03:00;;;;;;;2.17;1.63;;;;;;;;;;5072498;28;20051;-71
2023/04/23 10:05:27;;;;;;;2.72;1.70;;;;;;;;;;5073301;28;20040;-70
2023/04/23 10:07:55;;;;;;;3.47;1.88;;;;;;;;;;5072225;28;20050;-70
2023/04/23 10:10:21;;;;;;;4.88;1.73;;;;;;;;;;5072698;28;20548;-70
2023/04/23 10:12:48;;;;;;;3.40;1.92;;;;;;;;;;5072485;28;20110;-70
2023/04/23 10:15:17;;;;;;;3.25;1.77;;;;;;;;;;5072350;28;20561;-71
2023/04/23 10:17:44;;;;;;;3.08;1.75;;;;;;;;;;5072718;28;20486;-71
2023/04/23 10:20:12;;;;;;;2.80;1.80;;;;;;;;;;5072537;28;20056;-70
2023/04/23 10:22:40;;;;;;;2.95;1.63;;;;;;;;;;5072880;28;20048;-70
2023/04/23 10:25:11;;;;;;;2.53;1.45;;;;;;;;;;5071870;28;20048;-70
2023/04/23 10:27:40;;;;;;;3.85;2.00;;;;;;;;;;5072199;28;20135;-70
2023/04/23 10:30:08;;;;;;;3.20;1.98;;;;;;;;;;5072271;28;20041;-71
2023/04/23 10:32:37;;;;;;;3.55;2.22;;;;;;;;;;5072854;28;20465;-70
2023/04/23 10:35:04;;;;;;;4.53;2.92;;;;;;;;;;5072300;28;20053;-71
2023/04/23 10:37:31;;;;;;;3.70;3.30;;;;;;;;;;5072159;28;20053;-70
2023/04/23 10:40:10;;;;;;;4.25;3.40;;;;;;;;;;5071887;28;20595;-70
2023/04/23 10:42:38;;;;;;;6.43;3.97;;;;;;;;;;5072548;28;20490;-68
2023/04/23 10:45:13;;;;;;;7.53;4.40;;;;;;;;;;5072319;28;20070;-68
2023/04/23 10:47:47;;;;;;;4.60;4.20;;;;;;;;;;5084148;22;20025;-65
2023/04/23 10:50:22;;;;;;;6.07;4.30;;;;;;;;;;5076097;28;20409;-64
2023/04/23 10:52:52;;;;;;;4.90;4.20;;;;;;;;;;5076804;28;20056;-65
2023/04/23 10:55:20;;;;;;;4.90;4.40;;;;;;;;;;5077426;28;20497;-65
2023/04/23 10:57:57;;;;;;;4.97;4.35;;;;;;;;;;5077337;28;20044;-67
2023/04/23 11:00:24;;;;;;;5.20;3.90;;;;;;;;;;5077774;28;20052;-64
2023/04/23 11:02:52;;;;;;;5.25;4.18;;;;;;;;;;5077548;28;20040;-64
2023/04/23 11:05:18;;;;;;;3.70;3.40;;;;;;;;;;5077989;28;20424;-64
2023/04/23 11:08:03;;;;;;;6.35;3.38;;;;;;;;;;5077868;28;20472;-65
2023/04/23 11:10:31;;;;;;;5.20;3.35;;;;;;;;;;5079756;28;20048;-65
2023/04/23 11:12:58;;;;;;;3.55;3.25;;;;;;;;;;5078092;28;20051;-64
2023/04/23 11:15:24;;;;;;;4.40;3.28;;;;;;;;;;5078697;28;20048;-64
2023/04/23 11:18:02;;;;;;;3.70;3.20;;;;;;;;;;5077985;28;20051;-66
2023/04/23 11:20:28;;;;;;;5.43;3.13;;;;;;;;;;5077515;28;20094;-64
2023/04/23 11:22:55;;;;;;;3.35;3.00;;;;;;;;;;5078057;28;20055;-64
2023/04/23 11:25:23;;;;;;;5.88;3.22;;;;;;;;;;5077768;28;20495;-64
2023/04/23 11:27:59;;;;;;;4.53;3.28;;;;;;;;;;5078407;28;20044;-65
2023/04/23 11:30:27;;;;;;;2.97;2.47;;;;;;;;;;5077785;28;20049;-64
2023/04/23 11:32:55;;;;;;;3.97;2.78;;;;;;;;;;5077949;28;20484;-64
2023/04/23 11:35:28;;;;;;;3.05;2.60;;;;;;;;;;5077018;28;20052;-65
2023/04/23 11:37:57;;;;;;;6.35;2.95;;;;;;;;;;5077168;28;20044;-64
2023/04/23 11:40:24;;;;;;;3.63;3.10;;;;;;;;;;5077692;28;20044;-66
2023/04/23 11:42:53;;;;;;;3.38;3.08;;;;;;;;;;5078955;28;20048;-66
2023/04/23 11:45:27;;;;;;;3.70;3.08;;;;;;;;;;5076594;28;20044;-65
2023/04/23 11:48:04;;;;;;;4.55;2.90;;;;;;;;;;5075818;28;20421;-66
2023/04/23 11:50:34;;;;;;;4.68;2.65;;;;;;;;;;5077025;28;20048;-65
2023/04/23 11:53:05;;;;;;;3.85;2.30;;;;;;;;;;5075514;28;20406;-66
2023/04/23 11:55:31;;;;;;;3.83;2.45;;;;;;;;;;5077140;28;20045;-66
2023/04/23 11:57:58;;;;;;;3.35;2.42;;;;;;;;;;5074748;28;20049;-65
2023/04/23 12:00:26;;;;;;;3.45;2.33;;;;;;;;;;5080366;28;20048;-65
2023/04/23 12:02:54;;;;;;;3.78;2.58;;;;;;;;;;5078403;28;20398;-65
2023/04/23 12:05:22;;;;;;;2.67;2.20;;;;;;;;;;5079184;28;20049;-66
2023/04/23 12:07:51;;;;;;;2.55;2.20;;;;;;;;;;5079711;28;20051;-66
2023/04/23 12:10:19;;;;;;;3.30;2.00;;;;;;;;;;5078617;28;20048;-65
2023/04/23 12:12:50;;;;;;;2.15;1.95;;;;;;;;;;5078975;28;20052;-66
2023/04/23 12:15:17;;;;;;;2.30;2.10;;;;;;;;;;5078430;28;20048;-66
2023/04/23 12:17:48;;;;;;;4.20;2.05;;;;;;;;;;5077434;28;20055;-66
2023/04/23 12:20:18;;;;;;;2.65;1.80;;;;;;;;;;5077686;28;20048;-66
2023/04/23 12:22:44;;;;;;;3.60;2.38;;;;;;;;;;5078227;28;20051;-66
2023/04/23 12:25:12;;;;;;;3.15;2.20;;;;;;;;;;5077119;28;20051;-66
2023/04/23 12:27:41;;;;;;;1.92;1.70;;;;;;;;;;5077304;28;20111;-66
2023/04/23 12:30:10;;;;;;;4.22;2.25;;;;;;;;;;5077321;28;20354;-66
2023/04/23 12:32:37;;;;;;;2.67;2.17;;;;;;;;;;5075230;28;20387;-66
2023/04/23 12:35:05;;;;;;;4.30;1.80;;;;;;;;;;5076598;28;20498;-66
2023/04/23 12:37:36;;;;;;;2.97;1.67;;;;;;;;;;5077739;28;20056;-66
2023/04/23 12:40:06;;;;;;;3.83;1.67;;;;;;;;;;5077357;28;20074;-66
2023/04/23 12:42:35;;;;;;;2.47;1.50;;;;;;;;;;5075206;28;20539;-66
2023/04/23 12:45:07;;;;;;;2.72;1.60;;;;;;;;;;5075891;28;20048;-66
2023/04/23 12:47:33;;;;;;;;;;;;;;;;;;5077899;28;20051;-66
2023/04/23 12:50:00;;;;;;;3.30;1.40;;;;;;;;;;5076355;28;19920;-65
2023/04/23 12:52:27;;;;;;;2.28;1.38;;;;;;;;;;5076318;28;20050;-66
2023/04/23 12:54:56;;;;;;;5.60;1.45;;;;;;;;;;5078195;28;20049;-66
2023/04/23 12:57:23;;;;;;;2.95;1.60;;;;;;;;;;5077321;28;20124;-65
2023/04/23 12:59:51;;;;;;;4.00;1.50;;;;;;;;;;5077916;28;20276;-65
2023/04/23 13:02:17;;;;;;;1.58;1.48;;;;;;;;;;5078352;28;20524;-65
2023/04/23 13:04:44;;;;;;;1.90;1.65;;;;;;;;;;5081969;28;20044;-65
2023/04/23 13:07:10;;;;;;;2.70;1.45;;;;;;;;;;5081616;28;20041;-65
2023/04/23 13:09:37;;;;;;;1.83;1.30;;;;;;;;;;5083766;28;20052;-65
2023/04/23 13:12:04;;;;;;;2.40;1.52;;;;;;;;;;5082494;28;20044;-65
2023/04/23 13:14:31;;;;;;;2.67;1.40;;;;;;;;;;5082830;28;20079;-65
2023/04/23 13:16:59;;;;;;;2.88;1.67;;;;;;;;;;5081722;28;20044;-65
2023/04/23 13:19:25;;;;;;;2.05;1.40;;;;;;;;;;5079844;28;20048;-65
2023/04/23 13:21:52;;;;;;;2.75;1.40;;;;;;;;;;5077724;28;20045;-66
2023/04/23 13:24:19;;;;;;;4.43;1.67;;;;;;;;;;5079761;28;20059;-65
2023/04/23 13:26:48;;;;;;;2.25;1.40;;;;;;;;;;5081326;28;20055;-65
2023/04/23 13:29:14;;;;;;;1.70;1.38;;;;;;;;;;5080533;28;20512;-65
2023/04/23 13:31:41;;;;;;;1.80;1.70;;;;;;;;;;5080341;28;20044;-65
2023/04/23 13:34:11;;;;;;;2.75;1.52;;;;;;;;;;5079760;28;20487;-66
2023/04/23 13:36:40;;;;;;;1.45;1.30;;;;;;;;;;5080049;28;20044;-66
2023/04/23 13:39:08;;;;;;;1.27;1.10;;;;;;;;;;5079393;28;20045;-65
2023/04/23 13:41:38;;;;;;;2.78;1.20;;;;;;;;;;5081209;28;20048;-65
2023/04/23 13:44:05;;;;;;;1.75;1.23;;;;;;;;;;5080371;28;20044;-65
2023/04/23 13:46:32;;;;;;;1.13;1.02;;;;;;;;;;5080699;28;20113;-65
2023/04/23 13:49:01;;;;;;;1.33;1.20;;;;;;;;;;5080022;28;20521;-65
2023/04/23 13:51:38;;;;;;;1.77;1.48;;;;;;;;;;5080998;28;20049;-65
2023/04/23 13:54:07;;;;;;;1.30;1.20;;;;;;;;;;5082749;28;20049;-65
2023/04/23 13:56:35;;;;;;;2.67;1.23;;;;;;;;;;5082348;28;20055;-65
2023/04/23 13:59:02;;;;;;;1.15;1.05;;;;;;;;;;5082905;28;20124;-65
2023/04/23 14:01:32;;;;;;;1.52;1.35;;;;;;;;;;5083008;28;20041;-65
2023/04/23 14:03:59;;;;;;;6.82;3.53;;;;;;;;;;5082347;28;20051;-65
2023/04/23 14:06:26;;;;;;;1.50;1.10;;;;;;;;;;5082533;28;20054;-65
2023/04/23 14:08:58;;;;;;;3.40;1.52;;;;;;;;;;5080177;28;20052;-65
2023/04/23 14:11:31;;;;;;;;;;;;;;;;;;5080387;28;20040;-65
2023/04/23 14:13:59;;;;;;;3.00;1.52;;;;;;;;;;5078585;28;19931;-66
2023/04/23 14:16:26;;;;;;;1.83;1.50;;;;;;;;;;5079911;28;20494;-65
2023/04/23 14:18:54;;;;;;;3.33;1.33;;;;;;;;;;5079443;28;20056;-65
2023/04/23 14:21:22;;;;;;;1.50;1.30;;;;;;;;;;5078152;28;20051;-65
2023/04/23 14:24:02;;;;;;;1.80;1.30;;;;;;;;;;5079516;28;20135;-65
2023/04/23 14:26:33;;;;;;;3.30;1.50;;;;;;;;;;5080290;28;20375;-65
2023/04/23 14:29:03;;;;;;;2.90;2.07;;;;;;;;;;5078873;28;20510;-64
2023/04/23 14:31:30;;;;;;;1.50;1.17;;;;;;;;;;5079293;28;20045;-65
2023/04/23 14:33:58;;;;;;;2.42;2.22;;;;;;;;;;5079903;28;20123;-65
2023/04/23 14:36:25;;;;;;;1.90;1.55;;;;;;;;;;5078847;28;20052;-65
2023/04/23 14:38:51;;;;;;;1.98;1.00;;;;;;;;;;5077938;28;20055;-65
2023/04/23 14:41:19;;;;;;;2.88;2.53;;;;;;;;;;5078383;28;20059;-65
2023/04/23 14:43:46;;;;;;;1.98;1.77;;;;;;;;;;5078695;28;20076;-65
2023/04/23 14:46:13;;;;;;;1.85;1.50;;;;;;;;;;5078907;28;20051;-65